sensor_id;sensor_type;location;lat;lon;timestamp;P1;durP1;ratioP1;P2;durP2;ratioP2
13079;SDS011;6606;49.154;9.280;2023-03-26T00:01:56;5.83;;;1.70;;
13079;SDS011;6606;49.154;9.280;2023-03-26T00:04:38;6.03;;;1.93;;
13079;SDS011;6606;49.154;9.280;2023-03-26T00:07:23;4.03;;;1.50;;
13079;SDS011;6606;49.154;9.280;2023-03-26T00:10:06;5.70;;;1.70;;
13079;SDS011;6606;49.154;9.280;2023-03-26T00:12:48;8.03;;;1.80;;
13079;SDS011;6606;49.154;9.280;2023-03-26T00:15:31;7.00;;;1.80;;
13079;SDS011;6606;49.154;9.280;2023-03-26T00:18:20;6.60;;;1.83;;
13079;SDS011;6606;49.154;9.280;2023-03-26T00:21:04;6.50;;;1.63;;
13079;SDS011;6606;49.154;9.280;2023-03-26T00:23:48;6.33;;;1.50;;
13079;SDS011;6606;49.154;9.280;2023-03-26T00:26:30;5.97;;;1.63;;
13079;SDS011;6606;49.154;9.280;2023-03-26T00:29:12;4.07;;;1.47;;
13079;SDS011;6606;49.154;9.280;2023-03-26T00:31:54;4.93;;;1.60;;
13079;SDS011;6606;49.154;9.280;2023-03-26T00:34:36;6.87;;;1.53;;
13079;SDS011;6606;49.154;9.280;2023-03-26T00:37:20;6.30;;;1.47;;
13079;SDS011;6606;49.154;9.280;2023-03-26T00:40:08;4.80;;;1.50;;
13079;SDS011;6606;49.154;9.280;2023-03-26T00:42:50;3.47;;;1.53;;
13079;SDS011;6606;49.154;9.280;2023-03-26T00:45:32;4.23;;;1.40;;
13079;SDS011;6606;49.154;9.280;2023-03-26T00:48:14;5.73;;;1.80;;
13079;SDS011;6606;49.154;9.280;2023-03-26T00:50:59;2.37;;;1.27;;
13079;SDS011;6606;49.154;9.280;2023-03-26T00:53:44;3.77;;;1.37;;
13079;SDS011;6606;49.154;9.280;2023-03-26T00:56:29;3.63;;;1.07;;
13079;SDS011;6606;49.154;9.280;2023-03-26T00:59:11;2.53;;;1.13;;
13079;SDS011;6606;49.154;9.280;2023-03-26T01:01:52;4.53;;;1.30;;
13079;SDS011;6606;49.154;9.280;2023-03-26T01:04:37;4.67;;;1.50;;
13079;SDS011;6606;49.154;9.280;2023-03-26T01:07:19;5.03;;;1.80;;
13079;SDS011;6606;49.154;9.280;2023-03-26T01:10:01;4.73;;;1.50;;
13079;SDS011;6606;49.154;9.280;2023-03-26T01:12:45;5.57;;;1.73;;
13079;SDS011;6606;49.154;9.280;2023-03-26T01:15:27;6.77;;;1.50;;
13079;SDS011;6606;49.154;9.280;2023-03-26T01:18:09;4.80;;;1.50;;
13079;SDS011;6606;49.154;9.280;2023-03-26T01:20:53;4.47;;;1.43;;
13079;SDS011;6606;49.154;9.280;2023-03-26T01:23:44;6.07;;;1.60;;
13079;SDS011;6606;49.154;9.280;2023-03-26T01:26:42;6.63;;;1.90;;
13079;SDS011;6606;49.154;9.280;2023-03-26T01:29:34;4.53;;;1.70;;
13079;SDS011;6606;49.154;9.280;2023-03-26T01:35:39;4.50;;;1.63;;
13079;SDS011;6606;49.154;9.280;2023-03-26T01:38:27;7.53;;;4.73;;
13079;SDS011;6606;49.154;9.280;2023-03-26T01:41:29;11.70;;;3.70;;
13079;SDS011;6606;49.154;9.280;2023-03-26T01:44:22;8.70;;;2.80;;
13079;SDS011;6606;49.154;9.280;2023-03-26T01:47:11;5.90;;;2.23;;
13079;SDS011;6606;49.154;9.280;2023-03-26T01:49:54;5.10;;;2.37;;
13079;SDS011;6606;49.154;9.280;2023-03-26T01:52:35;6.87;;;1.80;;
13079;SDS011;6606;49.154;9.280;2023-03-26T01:55:17;4.77;;;1.73;;
13079;SDS011;6606;49.154;9.280;2023-03-26T01:58:02;4.13;;;1.50;;
13079;SDS011;6606;49.154;9.280;2023-03-26T02:00:52;4.67;;;1.67;;
13079;SDS011;6606;49.154;9.280;2023-03-26T02:03:42;6.40;;;1.83;;
13079;SDS011;6606;49.154;9.280;2023-03-26T02:06:31;7.00;;;2.03;;
13079;SDS011;6606;49.154;9.280;2023-03-26T02:09:23;3.90;;;1.70;;
13079;SDS011;6606;49.154;9.280;2023-03-26T02:12:09;6.40;;;1.83;;
13079;SDS011;6606;49.154;9.280;2023-03-26T02:14:51;6.70;;;1.60;;
13079;SDS011;6606;49.154;9.280;2023-03-26T02:17:35;6.43;;;1.70;;
13079;SDS011;6606;49.154;9.280;2023-03-26T02:20:19;4.87;;;1.60;;
13079;SDS011;6606;49.154;9.280;2023-03-26T02:23:01;6.40;;;1.67;;
13079;SDS011;6606;49.154;9.280;2023-03-26T02:25:44;5.53;;;1.70;;
13079;SDS011;6606;49.154;9.280;2023-03-26T02:28:26;7.50;;;2.13;;
13079;SDS011;6606;49.154;9.280;2023-03-26T02:31:08;4.13;;;1.70;;
13079;SDS011;6606;49.154;9.280;2023-03-26T02:33:54;5.77;;;1.93;;
13079;SDS011;6606;49.154;9.280;2023-03-26T02:36:37;4.10;;;1.60;;
13079;SDS011;6606;49.154;9.280;2023-03-26T02:39:22;5.63;;;1.70;;
13079;SDS011;6606;49.154;9.280;2023-03-26T02:42:10;4.87;;;1.87;;
13079;SDS011;6606;49.154;9.280;2023-03-26T02:44:59;8.13;;;2.30;;
13079;SDS011;6606;49.154;9.280;2023-03-26T02:48:06;6.20;;;1.97;;
13079;SDS011;6606;49.154;9.280;2023-03-26T02:51:01;4.70;;;1.50;;
13079;SDS011;6606;49.154;9.280;2023-03-26T02:54:09;5.27;;;1.63;;
13079;SDS011;6606;49.154;9.280;2023-03-26T02:57:05;5.03;;;1.87;;
13079;SDS011;6606;49.154;9.280;2023-03-26T03:00:12;5.17;;;1.93;;
13079;SDS011;6606;49.154;9.280;2023-03-26T03:03:17;8.90;;;1.80;;
13079;SDS011;6606;49.154;9.280;2023-03-26T03:06:20;5.80;;;2.13;;
13079;SDS011;6606;49.154;9.280;2023-03-26T03:09:09;5.07;;;1.60;;
13079;SDS011;6606;49.154;9.280;2023-03-26T03:11:51;6.63;;;2.00;;
13079;SDS011;6606;49.154;9.280;2023-03-26T03:14:33;7.73;;;1.90;;
13079;SDS011;6606;49.154;9.280;2023-03-26T03:17:15;5.37;;;1.67;;
13079;SDS011;6606;49.154;9.280;2023-03-26T03:20:00;5.30;;;1.90;;
13079;SDS011;6606;49.154;9.280;2023-03-26T03:22:46;4.20;;;1.73;;
13079;SDS011;6606;49.154;9.280;2023-03-26T03:25:27;3.07;;;1.60;;
13079;SDS011;6606;49.154;9.280;2023-03-26T03:28:09;5.57;;;1.80;;
13079;SDS011;6606;49.154;9.280;2023-03-26T03:30:51;6.30;;;2.23;;
13079;SDS011;6606;49.154;9.280;2023-03-26T03:33:43;4.90;;;1.70;;
13079;SDS011;6606;49.154;9.280;2023-03-26T03:36:27;3.70;;;1.70;;
13079;SDS011;6606;49.154;9.280;2023-03-26T03:39:20;4.80;;;1.60;;
13079;SDS011;6606;49.154;9.280;2023-03-26T03:42:03;6.67;;;1.90;;
13079;SDS011;6606;49.154;9.280;2023-03-26T03:44:46;4.77;;;1.83;;
13079;SDS011;6606;49.154;9.280;2023-03-26T03:47:54;6.67;;;2.10;;
13079;SDS011;6606;49.154;9.280;2023-03-26T03:50:45;6.97;;;1.83;;
13079;SDS011;6606;49.154;9.280;2023-03-26T03:53:42;4.40;;;1.70;;
13079;SDS011;6606;49.154;9.280;2023-03-26T03:56:34;8.37;;;1.90;;
13079;SDS011;6606;49.154;9.280;2023-03-26T03:59:35;3.67;;;1.50;;
13079;SDS011;6606;49.154;9.280;2023-03-26T04:02:20;4.00;;;1.70;;
13079;SDS011;6606;49.154;9.280;2023-03-26T04:05:13;4.83;;;1.70;;
13079;SDS011;6606;49.154;9.280;2023-03-26T04:07:59;4.50;;;1.77;;
13079;SDS011;6606;49.154;9.280;2023-03-26T04:10:41;4.40;;;1.53;;
13079;SDS011;6606;49.154;9.280;2023-03-26T04:13:31;5.17;;;1.50;;
13079;SDS011;6606;49.154;9.280;2023-03-26T04:16:33;7.00;;;1.60;;
13079;SDS011;6606;49.154;9.280;2023-03-26T04:19:15;7.33;;;2.30;;
13079;SDS011;6606;49.154;9.280;2023-03-26T04:21:56;6.07;;;1.90;;
13079;SDS011;6606;49.154;9.280;2023-03-26T04:24:48;7.63;;;1.93;;
13079;SDS011;6606;49.154;9.280;2023-03-26T04:28:02;5.20;;;1.50;;
13079;SDS011;6606;49.154;9.280;2023-03-26T04:31:11;5.80;;;1.90;;
13079;SDS011;6606;49.154;9.280;2023-03-26T04:34:04;6.47;;;1.63;;
13079;SDS011;6606;49.154;9.280;2023-03-26T04:36:59;4.60;;;1.67;;
13079;SDS011;6606;49.154;9.280;2023-03-26T04:39:46;3.40;;;1.60;;
13079;SDS011;6606;49.154;9.280;2023-03-26T04:42:45;5.00;;;1.60;;
13079;SDS011;6606;49.154;9.280;2023-03-26T04:45:46;6.23;;;1.50;;
13079;SDS011;6606;49.154;9.280;2023-03-26T04:48:31;4.87;;;1.60;;
13079;SDS011;6606;49.154;9.280;2023-03-26T04:51:13;6.67;;;1.60;;
13079;SDS011;6606;49.154;9.280;2023-03-26T04:53:58;8.00;;;1.87;;
13079;SDS011;6606;49.154;9.280;2023-03-26T04:56:50;11.03;;;2.03;;
13079;SDS011;6606;49.154;9.280;2023-03-26T04:59:35;4.47;;;1.80;;
13079;SDS011;6606;49.154;9.280;2023-03-26T05:02:23;5.83;;;1.80;;
13079;SDS011;6606;49.154;9.280;2023-03-26T05:05:09;3.37;;;1.43;;
13079;SDS011;6606;49.154;9.280;2023-03-26T05:07:51;3.83;;;1.43;;
13079;SDS011;6606;49.154;9.280;2023-03-26T05:10:35;7.40;;;2.17;;
13079;SDS011;6606;49.154;9.280;2023-03-26T05:13:19;7.40;;;1.80;;
13079;SDS011;6606;49.154;9.280;2023-03-26T05:16:04;4.43;;;1.50;;
13079;SDS011;6606;49.154;9.280;2023-03-26T05:19:01;4.27;;;1.60;;
13079;SDS011;6606;49.154;9.280;2023-03-26T05:21:48;7.13;;;1.83;;
13079;SDS011;6606;49.154;9.280;2023-03-26T05:24:29;4.93;;;1.60;;
13079;SDS011;6606;49.154;9.280;2023-03-26T05:27:12;5.67;;;1.70;;
13079;SDS011;6606;49.154;9.280;2023-03-26T05:29:59;7.63;;;1.70;;
13079;SDS011;6606;49.154;9.280;2023-03-26T05:32:41;3.13;;;1.60;;
13079;SDS011;6606;49.154;9.280;2023-03-26T05:35:23;3.77;;;1.77;;
13079;SDS011;6606;49.154;9.280;2023-03-26T05:38:07;5.23;;;1.60;;
13079;SDS011;6606;49.154;9.280;2023-03-26T05:40:48;5.87;;;1.90;;
13079;SDS011;6606;49.154;9.280;2023-03-26T05:43:33;4.97;;;1.67;;
13079;SDS011;6606;49.154;9.280;2023-03-26T05:46:27;6.57;;;1.77;;
13079;SDS011;6606;49.154;9.280;2023-03-26T05:49:09;6.43;;;2.07;;
13079;SDS011;6606;49.154;9.280;2023-03-26T05:51:51;10.07;;;2.47;;
13079;SDS011;6606;49.154;9.280;2023-03-26T05:55:09;6.13;;;1.93;;
13079;SDS011;6606;49.154;9.280;2023-03-26T05:58:11;7.00;;;2.40;;
13079;SDS011;6606;49.154;9.280;2023-03-26T06:01:12;5.70;;;1.80;;
13079;SDS011;6606;49.154;9.280;2023-03-26T06:04:17;5.63;;;1.80;;
13079;SDS011;6606;49.154;9.280;2023-03-26T06:07:31;3.83;;;1.90;;
13079;SDS011;6606;49.154;9.280;2023-03-26T06:10:31;6.50;;;1.90;;
13079;SDS011;6606;49.154;9.280;2023-03-26T06:13:13;7.97;;;2.07;;
13079;SDS011;6606;49.154;9.280;2023-03-26T06:15:56;3.47;;;1.60;;
13079;SDS011;6606;49.154;9.280;2023-03-26T06:18:45;9.67;;;2.20;;
13079;SDS011;6606;49.154;9.280;2023-03-26T06:21:46;5.70;;;1.93;;
13079;SDS011;6606;49.154;9.280;2023-03-26T06:24:33;5.13;;;1.70;;
13079;SDS011;6606;49.154;9.280;2023-03-26T06:27:34;6.67;;;1.93;;
13079;SDS011;6606;49.154;9.280;2023-03-26T06:30:37;5.57;;;2.00;;
13079;SDS011;6606;49.154;9.280;2023-03-26T06:33:40;7.87;;;2.17;;
13079;SDS011;6606;49.154;9.280;2023-03-26T06:36:25;10.97;;;2.23;;
13079;SDS011;6606;49.154;9.280;2023-03-26T06:39:07;4.63;;;1.87;;
13079;SDS011;6606;49.154;9.280;2023-03-26T06:41:53;7.70;;;2.60;;
13079;SDS011;6606;49.154;9.280;2023-03-26T06:44:55;4.23;;;1.67;;
13079;SDS011;6606;49.154;9.280;2023-03-26T06:47:55;4.37;;;1.73;;
13079;SDS011;6606;49.154;9.280;2023-03-26T06:51:04;7.60;;;2.30;;
13079;SDS011;6606;49.154;9.280;2023-03-26T06:54:06;9.20;;;2.10;;
13079;SDS011;6606;49.154;9.280;2023-03-26T06:57:28;5.00;;;2.17;;
13079;SDS011;6606;49.154;9.280;2023-03-26T07:00:31;7.30;;;2.00;;
13079;SDS011;6606;49.154;9.280;2023-03-26T07:03:33;8.13;;;2.10;;
13079;SDS011;6606;49.154;9.280;2023-03-26T07:06:33;6.53;;;2.10;;
13079;SDS011;6606;49.154;9.280;2023-03-26T07:09:40;6.17;;;2.00;;
13079;SDS011;6606;49.154;9.280;2023-03-26T07:12:41;8.97;;;2.43;;
13079;SDS011;6606;49.154;9.280;2023-03-26T07:15:43;6.03;;;2.20;;
13079;SDS011;6606;49.154;9.280;2023-03-26T07:18:27;6.20;;;1.77;;
13079;SDS011;6606;49.154;9.280;2023-03-26T07:21:09;7.60;;;2.13;;
13079;SDS011;6606;49.154;9.280;2023-03-26T07:23:52;6.60;;;2.00;;
13079;SDS011;6606;49.154;9.280;2023-03-26T07:26:55;6.70;;;2.10;;
13079;SDS011;6606;49.154;9.280;2023-03-26T07:29:51;5.17;;;2.00;;
13079;SDS011;6606;49.154;9.280;2023-03-26T07:33:05;6.20;;;1.77;;
13079;SDS011;6606;49.154;9.280;2023-03-26T07:36:06;9.10;;;2.47;;
13079;SDS011;6606;49.154;9.280;2023-03-26T07:39:08;7.00;;;2.23;;
13079;SDS011;6606;49.154;9.280;2023-03-26T07:42:26;5.57;;;2.20;;
13079;SDS011;6606;49.154;9.280;2023-03-26T07:45:36;6.13;;;2.00;;
13079;SDS011;6606;49.154;9.280;2023-03-26T07:48:38;5.67;;;1.93;;
13079;SDS011;6606;49.154;9.280;2023-03-26T07:51:43;4.13;;;1.80;;
13079;SDS011;6606;49.154;9.280;2023-03-26T07:54:55;6.10;;;1.90;;
13079;SDS011;6606;49.154;9.280;2023-03-26T07:57:55;6.23;;;1.60;;
13079;SDS011;6606;49.154;9.280;2023-03-26T08:01:07;6.17;;;1.90;;
13079;SDS011;6606;49.154;9.280;2023-03-26T08:04:06;5.03;;;1.43;;
13079;SDS011;6606;49.154;9.280;2023-03-26T08:07:23;4.00;;;1.43;;
13079;SDS011;6606;49.154;9.280;2023-03-26T08:10:29;5.73;;;2.10;;
13079;SDS011;6606;49.154;9.280;2023-03-26T08:13:20;5.23;;;1.60;;
13079;SDS011;6606;49.154;9.280;2023-03-26T08:16:07;4.27;;;1.57;;
13079;SDS011;6606;49.154;9.280;2023-03-26T08:18:55;4.90;;;1.70;;
13079;SDS011;6606;49.154;9.280;2023-03-26T08:21:48;6.77;;;1.67;;
13079;SDS011;6606;49.154;9.280;2023-03-26T08:24:35;4.53;;;1.57;;
13079;SDS011;6606;49.154;9.280;2023-03-26T08:27:25;1.80;;;1.30;;
13079;SDS011;6606;49.154;9.280;2023-03-26T08:30:15;9.40;;;2.00;;
13079;SDS011;6606;49.154;9.280;2023-03-26T08:33:01;5.37;;;1.93;;
13079;SDS011;6606;49.154;9.280;2023-03-26T08:35:51;5.47;;;1.60;;
13079;SDS011;6606;49.154;9.280;2023-03-26T08:38:34;5.10;;;1.60;;
13079;SDS011;6606;49.154;9.280;2023-03-26T08:44:47;5.87;;;1.90;;
13079;SDS011;6606;49.154;9.280;2023-03-26T08:54:45;4.70;;;1.70;;
13079;SDS011;6606;49.154;9.280;2023-03-26T08:57:45;6.33;;;2.00;;
13079;SDS011;6606;49.154;9.280;2023-03-26T09:00:52;7.17;;;2.03;;
13079;SDS011;6606;49.154;9.280;2023-03-26T09:04:10;5.80;;;1.90;;
13079;SDS011;6606;49.154;9.280;2023-03-26T09:10:33;5.67;;;1.97;;
13079;SDS011;6606;49.154;9.280;2023-03-26T09:24:11;4.63;;;2.03;;
13079;SDS011;6606;49.154;9.280;2023-03-26T09:27:29;6.80;;;2.03;;
13079;SDS011;6606;49.154;9.280;2023-03-26T09:30:22;5.57;;;2.43;;
13079;SDS011;6606;49.154;9.280;2023-03-26T09:36:46;6.07;;;2.10;;
13079;SDS011;6606;49.154;9.280;2023-03-26T09:39:38;5.27;;;2.03;;
13079;SDS011;6606;49.154;9.280;2023-03-26T09:42:39;6.23;;;1.80;;
13079;SDS011;6606;49.154;9.280;2023-03-26T09:45:37;7.17;;;1.90;;
13079;SDS011;6606;49.154;9.280;2023-03-26T09:55:20;5.93;;;1.90;;
13079;SDS011;6606;49.154;9.280;2023-03-26T09:58:25;6.83;;;1.73;;
13079;SDS011;6606;49.154;9.280;2023-03-26T10:01:43;6.33;;;1.80;;
13079;SDS011;6606;49.154;9.280;2023-03-26T10:04:41;4.10;;;1.80;;
13079;SDS011;6606;49.154;9.280;2023-03-26T10:07:52;5.47;;;1.80;;
13079;SDS011;6606;49.154;9.280;2023-03-26T10:10:46;4.33;;;1.67;;
13079;SDS011;6606;49.154;9.280;2023-03-26T10:13:37;4.87;;;1.50;;
13079;SDS011;6606;49.154;9.280;2023-03-26T10:16:30;6.03;;;2.10;;
13079;SDS011;6606;49.154;9.280;2023-03-26T10:19:27;3.57;;;1.60;;
13079;SDS011;6606;49.154;9.280;2023-03-26T10:22:19;3.63;;;1.63;;
13079;SDS011;6606;49.154;9.280;2023-03-26T10:25:21;3.50;;;1.70;;
13079;SDS011;6606;49.154;9.280;2023-03-26T10:28:15;3.33;;;1.60;;
13079;SDS011;6606;49.154;9.280;2023-03-26T10:31:24;4.30;;;1.53;;
13079;SDS011;6606;49.154;9.280;2023-03-26T10:34:25;4.40;;;1.70;;
13079;SDS011;6606;49.154;9.280;2023-03-26T10:37:20;3.90;;;1.53;;
13079;SDS011;6606;49.154;9.280;2023-03-26T10:40:15;5.13;;;1.80;;
13079;SDS011;6606;49.154;9.280;2023-03-26T10:46:35;2.90;;;1.53;;
13079;SDS011;6606;49.154;9.280;2023-03-26T10:49:36;3.93;;;1.37;;
13079;SDS011;6606;49.154;9.280;2023-03-26T10:52:45;4.03;;;2.00;;
13079;SDS011;6606;49.154;9.280;2023-03-26T10:55:33;3.87;;;1.60;;
13079;SDS011;6606;49.154;9.280;2023-03-26T10:58:21;2.20;;;1.40;;
13079;SDS011;6606;49.154;9.280;2023-03-26T11:01:10;4.77;;;1.60;;
13079;SDS011;6606;49.154;9.280;2023-03-26T11:03:57;3.53;;;1.50;;
13079;SDS011;6606;49.154;9.280;2023-03-26T11:06:52;5.83;;;1.57;;
13079;SDS011;6606;49.154;9.280;2023-03-26T11:09:43;3.83;;;1.50;;
13079;SDS011;6606;49.154;9.280;2023-03-26T11:12:34;4.53;;;1.63;;
13079;SDS011;6606;49.154;9.280;2023-03-26T11:15:24;3.17;;;1.47;;
13079;SDS011;6606;49.154;9.280;2023-03-26T11:18:12;4.90;;;1.60;;
13079;SDS011;6606;49.154;9.280;2023-03-26T11:21:02;4.03;;;1.80;;
13079;SDS011;6606;49.154;9.280;2023-03-26T11:23:55;4.80;;;1.90;;
13079;SDS011;6606;49.154;9.280;2023-03-26T11:26:49;4.17;;;1.70;;
13079;SDS011;6606;49.154;9.280;2023-03-26T11:29:41;4.30;;;1.63;;
13079;SDS011;6606;49.154;9.280;2023-03-26T11:32:33;4.43;;;2.00;;
13079;SDS011;6606;49.154;9.280;2023-03-26T11:35:21;5.20;;;2.33;;
13079;SDS011;6606;49.154;9.280;2023-03-26T11:38:17;4.00;;;2.13;;
13079;SDS011;6606;49.154;9.280;2023-03-26T11:41:06;3.77;;;1.90;;
13079;SDS011;6606;49.154;9.280;2023-03-26T11:44:19;6.37;;;1.73;;
13079;SDS011;6606;49.154;9.280;2023-03-26T11:47:04;5.03;;;1.83;;
13079;SDS011;6606;49.154;9.280;2023-03-26T11:49:53;4.13;;;1.90;;
13079;SDS011;6606;49.154;9.280;2023-03-26T11:52:38;3.13;;;1.43;;
13079;SDS011;6606;49.154;9.280;2023-03-26T11:55:22;4.37;;;1.60;;
13079;SDS011;6606;49.154;9.280;2023-03-26T11:58:06;8.53;;;1.33;;
13079;SDS011;6606;49.154;9.280;2023-03-26T12:01:04;2.92;;;1.42;;
13079;SDS011;6606;49.154;9.280;2023-03-26T12:03:55;2.50;;;1.10;;
13079;SDS011;6606;49.154;9.280;2023-03-26T12:06:39;2.25;;;1.05;;
13079;SDS011;6606;49.154;9.280;2023-03-26T12:09:32;3.70;;;1.30;;
13079;SDS011;6606;49.154;9.280;2023-03-26T12:12:15;2.60;;;0.90;;
13079;SDS011;6606;49.154;9.280;2023-03-26T12:14:58;3.57;;;1.00;;
13079;SDS011;6606;49.154;9.280;2023-03-26T12:17:41;3.47;;;1.07;;
13079;SDS011;6606;49.154;9.280;2023-03-26T12:20:29;3.43;;;1.10;;
13079;SDS011;6606;49.154;9.280;2023-03-26T12:26:17;2.77;;;1.33;;
13079;SDS011;6606;49.154;9.280;2023-03-26T12:29:07;2.28;;;0.90;;
13079;SDS011;6606;49.154;9.280;2023-03-26T12:31:54;2.33;;;1.10;;
13079;SDS011;6606;49.154;9.280;2023-03-26T12:34:37;3.10;;;1.00;;
13079;SDS011;6606;49.154;9.280;2023-03-26T12:37:33;2.10;;;1.00;;
13079;SDS011;6606;49.154;9.280;2023-03-26T12:40:27;2.40;;;1.20;;
13079;SDS011;6606;49.154;9.280;2023-03-26T12:43:21;2.70;;;1.00;;
13079;SDS011;6606;49.154;9.280;2023-03-26T12:46:19;2.30;;;1.20;;
13079;SDS011;6606;49.154;9.280;2023-03-26T12:49:05;2.50;;;1.00;;
13079;SDS011;6606;49.154;9.280;2023-03-26T12:51:49;2.13;;;0.93;;
13079;SDS011;6606;49.154;9.280;2023-03-26T12:54:40;3.63;;;1.20;;
13079;SDS011;6606;49.154;9.280;2023-03-26T12:57:30;2.53;;;1.20;;
13079;SDS011;6606;49.154;9.280;2023-03-26T13:00:30;4.10;;;1.20;;
13079;SDS011;6606;49.154;9.280;2023-03-26T13:03:25;4.60;;;1.00;;
13079;SDS011;6606;49.154;9.280;2023-03-26T13:06:33;2.40;;;1.30;;
13079;SDS011;6606;49.154;9.280;2023-03-26T13:09:39;1.60;;;1.10;;
13079;SDS011;6606;49.154;9.280;2023-03-26T13:12:32;2.37;;;1.20;;
13079;SDS011;6606;49.154;9.280;2023-03-26T13:15:21;2.73;;;1.20;;
13079;SDS011;6606;49.154;9.280;2023-03-26T13:18:10;3.57;;;1.00;;
13079;SDS011;6606;49.154;9.280;2023-03-26T13:21:03;3.07;;;1.10;;
13079;SDS011;6606;49.154;9.280;2023-03-26T13:23:57;2.10;;;1.17;;
13079;SDS011;6606;49.154;9.280;2023-03-26T13:26:52;1.80;;;0.87;;
13079;SDS011;6606;49.154;9.280;2023-03-26T13:29:55;4.50;;;1.30;;
13079;SDS011;6606;49.154;9.280;2023-03-26T13:32:46;4.47;;;1.20;;
13079;SDS011;6606;49.154;9.280;2023-03-26T13:35:38;3.27;;;1.33;;
13079;SDS011;6606;49.154;9.280;2023-03-26T13:38:27;2.13;;;1.20;;
13079;SDS011;6606;49.154;9.280;2023-03-26T13:41:17;3.70;;;1.30;;
13079;SDS011;6606;49.154;9.280;2023-03-26T13:44:12;3.47;;;1.30;;
13079;SDS011;6606;49.154;9.280;2023-03-26T13:47:04;4.30;;;1.33;;
13079;SDS011;6606;49.154;9.280;2023-03-26T13:49:51;2.50;;;0.93;;
13079;SDS011;6606;49.154;9.280;2023-03-26T13:53:59;2.90;;;1.10;;
13079;SDS011;6606;49.154;9.280;2023-03-26T13:56:49;4.07;;;1.17;;
13079;SDS011;6606;49.154;9.280;2023-03-26T13:59:36;2.67;;;1.10;;
13079;SDS011;6606;49.154;9.280;2023-03-26T14:02:22;4.67;;;1.30;;
13079;SDS011;6606;49.154;9.280;2023-03-26T14:13:48;2.73;;;1.13;;
13079;SDS011;6606;49.154;9.280;2023-03-26T14:16:39;3.57;;;1.30;;
13079;SDS011;6606;49.154;9.280;2023-03-26T14:19:31;3.13;;;1.30;;
13079;SDS011;6606;49.154;9.280;2023-03-26T14:22:31;3.63;;;1.20;;
13079;SDS011;6606;49.154;9.280;2023-03-26T14:25:24;4.33;;;1.40;;
13079;SDS011;6606;49.154;9.280;2023-03-26T14:28:23;3.83;;;1.80;;
13079;SDS011;6606;49.154;9.280;2023-03-26T14:31:21;2.10;;;1.07;;
13079;SDS011;6606;49.154;9.280;2023-03-26T14:34:21;2.73;;;1.20;;
13079;SDS011;6606;49.154;9.280;2023-03-26T14:37:19;3.13;;;1.20;;
13079;SDS011;6606;49.154;9.280;2023-03-26T14:40:27;3.33;;;1.10;;
13079;SDS011;6606;49.154;9.280;2023-03-26T14:43:22;4.00;;;1.20;;
13079;SDS011;6606;49.154;9.280;2023-03-26T14:46:26;3.03;;;1.40;;
13079;SDS011;6606;49.154;9.280;2023-03-26T14:49:24;2.40;;;1.10;;
13079;SDS011;6606;49.154;9.280;2023-03-26T14:52:27;2.90;;;1.20;;
13079;SDS011;6606;49.154;9.280;2023-03-26T14:55:29;3.63;;;1.37;;
13079;SDS011;6606;49.154;9.280;2023-03-26T15:08:34;3.77;;;1.40;;
13079;SDS011;6606;49.154;9.280;2023-03-26T15:11:48;5.60;;;1.70;;
13079;SDS011;6606;49.154;9.280;2023-03-26T15:14:55;3.73;;;1.10;;
13079;SDS011;6606;49.154;9.280;2023-03-26T15:21:21;4.57;;;1.30;;
13079;SDS011;6606;49.154;9.280;2023-03-26T15:27:51;5.07;;;1.33;;
13079;SDS011;6606;49.154;9.280;2023-03-26T15:31:05;4.40;;;1.20;;
13079;SDS011;6606;49.154;9.280;2023-03-26T15:34:03;2.97;;;1.20;;
13079;SDS011;6606;49.154;9.280;2023-03-26T15:40:24;4.70;;;1.20;;
13079;SDS011;6606;49.154;9.280;2023-03-26T15:46:49;2.80;;;1.00;;
13079;SDS011;6606;49.154;9.280;2023-03-26T15:50:00;4.27;;;1.30;;
13079;SDS011;6606;49.154;9.280;2023-03-26T15:56:49;2.20;;;1.03;;
13079;SDS011;6606;49.154;9.280;2023-03-26T15:59:47;2.07;;;0.90;;
13079;SDS011;6606;49.154;9.280;2023-03-26T16:02:43;2.47;;;0.80;;
13079;SDS011;6606;49.154;9.280;2023-03-26T16:05:44;4.77;;;1.00;;
13079;SDS011;6606;49.154;9.280;2023-03-26T16:08:40;1.57;;;0.90;;
13079;SDS011;6606;49.154;9.280;2023-03-26T16:18:25;2.10;;;1.03;;
13079;SDS011;6606;49.154;9.280;2023-03-26T16:21:24;1.70;;;0.80;;
13079;SDS011;6606;49.154;9.280;2023-03-26T16:24:29;4.13;;;1.30;;
13079;SDS011;6606;49.154;9.280;2023-03-26T16:30:13;1.60;;;0.80;;
13079;SDS011;6606;49.154;9.280;2023-03-26T16:33:10;3.40;;;0.60;;
13079;SDS011;6606;49.154;9.280;2023-03-26T16:36:03;1.17;;;0.70;;
13079;SDS011;6606;49.154;9.280;2023-03-26T16:39:18;0.70;;;0.60;;
13079;SDS011;6606;49.154;9.280;2023-03-26T16:45:16;1.30;;;0.70;;
13079;SDS011;6606;49.154;9.280;2023-03-26T16:48:08;0.60;;;0.60;;
13079;SDS011;6606;49.154;9.280;2023-03-26T16:51:03;0.60;;;0.60;;
13079;SDS011;6606;49.154;9.280;2023-03-26T16:53:58;0.63;;;0.50;;
13079;SDS011;6606;49.154;9.280;2023-03-26T16:56:59;0.93;;;0.57;;
13079;SDS011;6606;49.154;9.280;2023-03-26T17:03:30;1.07;;;0.60;;
13079;SDS011;6606;49.154;9.280;2023-03-26T17:06:25;1.10;;;0.67;;
13079;SDS011;6606;49.154;9.280;2023-03-26T17:09:31;2.50;;;0.70;;
13079;SDS011;6606;49.154;9.280;2023-03-26T17:12:23;0.70;;;0.60;;
13079;SDS011;6606;49.154;9.280;2023-03-26T17:15:16;1.67;;;0.90;;
13079;SDS011;6606;49.154;9.280;2023-03-26T17:18:22;1.87;;;0.80;;
13079;SDS011;6606;49.154;9.280;2023-03-26T17:21:12;1.37;;;0.80;;
13079;SDS011;6606;49.154;9.280;2023-03-26T17:24:08;0.80;;;0.70;;
13079;SDS011;6606;49.154;9.280;2023-03-26T17:26:58;1.03;;;0.70;;
13079;SDS011;6606;49.154;9.280;2023-03-26T17:29:54;1.67;;;0.90;;
13079;SDS011;6606;49.154;9.280;2023-03-26T17:32:54;1.93;;;0.83;;
13079;SDS011;6606;49.154;9.280;2023-03-26T17:35:39;2.57;;;0.93;;
13079;SDS011;6606;49.154;9.280;2023-03-26T17:41:49;2.00;;;0.70;;
13079;SDS011;6606;49.154;9.280;2023-03-26T17:44:35;1.63;;;1.00;;
13079;SDS011;6606;49.154;9.280;2023-03-26T17:47:28;1.43;;;0.80;;
13079;SDS011;6606;49.154;9.280;2023-03-26T17:50:15;2.80;;;0.90;;
13079;SDS011;6606;49.154;9.280;2023-03-26T17:53:02;1.10;;;0.73;;
13079;SDS011;6606;49.154;9.280;2023-03-26T17:55:59;1.40;;;0.90;;
13079;SDS011;6606;49.154;9.280;2023-03-26T17:58:48;2.00;;;1.10;;
13079;SDS011;6606;49.154;9.280;2023-03-26T18:01:33;1.43;;;0.90;;
13079;SDS011;6606;49.154;9.280;2023-03-26T18:04:18;1.10;;;0.80;;
13079;SDS011;6606;49.154;9.280;2023-03-26T18:07:24;1.40;;;1.00;;
13079;SDS011;6606;49.154;9.280;2023-03-26T18:10:28;1.87;;;0.93;;
13079;SDS011;6606;49.154;9.280;2023-03-26T18:16:37;1.83;;;0.90;;
13079;SDS011;6606;49.154;9.280;2023-03-26T18:19:22;1.60;;;1.00;;
13079;SDS011;6606;49.154;9.280;2023-03-26T18:22:04;1.53;;;0.90;;
13079;SDS011;6606;49.154;9.280;2023-03-26T18:24:58;1.93;;;1.00;;
13079;SDS011;6606;49.154;9.280;2023-03-26T18:27:41;1.10;;;0.90;;
13079;SDS011;6606;49.154;9.280;2023-03-26T18:30:23;1.67;;;1.00;;
13079;SDS011;6606;49.154;9.280;2023-03-26T18:33:10;1.23;;;0.80;;
13079;SDS011;6606;49.154;9.280;2023-03-26T18:36:03;1.00;;;0.80;;
13079;SDS011;6606;49.154;9.280;2023-03-26T18:38:46;1.50;;;0.90;;
13079;SDS011;6606;49.154;9.280;2023-03-26T18:41:29;1.17;;;0.97;;
13079;SDS011;6606;49.154;9.280;2023-03-26T18:44:16;1.07;;;0.90;;
13079;SDS011;6606;49.154;9.280;2023-03-26T18:47:00;2.13;;;1.00;;
13079;SDS011;6606;49.154;9.280;2023-03-26T18:49:48;1.77;;;0.90;;
13079;SDS011;6606;49.154;9.280;2023-03-26T18:52:34;4.03;;;1.17;;
13079;SDS011;6606;49.154;9.280;2023-03-26T18:55:16;2.00;;;0.80;;
13079;SDS011;6606;49.154;9.280;2023-03-26T18:57:57;2.50;;;1.00;;
13079;SDS011;6606;49.154;9.280;2023-03-26T19:00:39;1.13;;;0.83;;
13079;SDS011;6606;49.154;9.280;2023-03-26T19:03:23;1.20;;;0.70;;
13079;SDS011;6606;49.154;9.280;2023-03-26T19:06:12;2.30;;;0.90;;
13079;SDS011;6606;49.154;9.280;2023-03-26T19:08:55;2.43;;;1.00;;
13079;SDS011;6606;49.154;9.280;2023-03-26T19:11:38;2.70;;;1.03;;
13079;SDS011;6606;49.154;9.280;2023-03-26T19:14:21;1.53;;;0.80;;
13079;SDS011;6606;49.154;9.280;2023-03-26T19:17:05;1.47;;;0.80;;
13079;SDS011;6606;49.154;9.280;2023-03-26T19:19:47;1.30;;;0.80;;